Whiting, Wisconsin
Current Conditions -  °F | °C
As of 12:15 PM on Friday 24 Oct 2014 (Local Time) from KSTE Reporting Station
Haze Haze  
Wind Chill: 44°   Ceiling: 200
Heat Index: 47°   Visibility: 4mi
Dew Point: 47°   Wind: 5mph
Humidity: 100%   Direction: 190°S
Pressure: 30"   Gusts: NA
Location:  44.5531°N, 89.5186°W
Report Text: KSTE 241715Z AUTO 19004KT 4SM BR OVC002 08/08 A3000 RMK AO2 T00810081
Loading
Personal Weather Stations






























Interactive Weather Map
Tropical Storm Tracking
New forecast layout! Learn more

10-Day Weather Forecast

Advertisements
Track Severe Weather on mobile